Main page
METAR-TAF:

METAR-TAF

Airports :

Leonardo da Vinci–Fiumicino Airport

Rome-Fiumicino, Italy

latitude: 41-48N, longitude: 012-14E, elevation: 2 m

Current weather observation

The report was made 35 minutes ago, at 21:50 UTC
Wind 1 kt from variable directions
Temperature 21°C
Humidity 94%
Pressure 1016 hPa
Visibility 10 km or more
Shallow fog

METAR: LIRF 182150Z VRB01KT 9999 MIFG NSC 21/20 Q1016 NOSIG

Time: 00:25 (22:25 UTC)

Forecast

The report was made 42 minutes ago, at 21:43 UTC
Forecast valid from 18 at 21 UTC to 19 at 24 UTC
Wind 5 kt from variable directions
Visibility 10 km or more
no clouds below 1500 m and no cumulonimbus
Temporary
from 18 at 21 UTC to 19 at 06 UTC
Visibility: 0800 m
Broken clouds at a height of 400 ft
patches of fog
Becoming
from 19 at 10 UTC to 19 at 12 UTC
Wind 12 kt from the West
Becoming
from 19 at 18 UTC to 19 at 20 UTC
Wind 5 kt from variable directions

TAF: LIRF 182143Z 1821/1924 VRB05KT CAVOK TEMPO 1821/1906 0800 BCFG BKN004 BECMG 1910/1912 28012KT BECMG 1918/1920 VRB05KT

Weather observations and forecasts of more than 4000 airports (METAR and TAF reports).

The available stations are represented by yellow and red dots on the map.

Hover mouse over dot to see the name of the station.

Then click to see weather observations and forecasts.

To change the map : click on the green buttons with a black cross to zoom in, on the green button with a dash to zoom out, or on the green arrows for adjacent maps.


METAR-TAF: